Time;durP1;ratioP1;P1;durP2;ratioP2;P2;SDS_P1;SDS_P2;PMS_P1;PMS_P2;Temp;Humidity;BMP_temperature;BMP_pressure;BME280_temperature;BME280_humidity;BME280_pressure;Samples;Min_cycle;Max_cycle;Signal;HPM_P1;HPM_P2
2022/11/19 00:01:18;;;;;;;2.22;1.67;;;17.30;79.80;;;;;;5032724;28;20199;-68
2022/11/19 00:03:44;;;;;;;1.80;1.30;;;17.30;79.90;;;;;;5033002;28;20175;-68
2022/11/19 00:06:17;;;;;;;1.58;1.20;;;17.40;79.90;;;;;;5033126;28;20187;-69
2022/11/19 00:08:44;;;;;;;1.60;1.30;;;17.40;80.00;;;;;;5032798;28;20191;-68
2022/11/19 00:11:14;;;;;;;1.75;1.50;;;17.30;79.90;;;;;;5033074;28;20214;-68
2022/11/19 00:13:42;;;;;;;1.77;1.45;;;17.30;79.80;;;;;;5032837;28;20194;-68
2022/11/19 00:16:13;;;;;;;1.70;1.27;;;17.30;79.80;;;;;;5032706;28;20210;-68
2022/11/19 00:18:40;;;;;;;1.33;1.20;;;17.30;79.90;;;;;;5033971;28;20673;-68
2022/11/19 00:21:10;;;;;;;1.92;1.30;;;17.30;79.90;;;;;;5032650;28;20199;-68
2022/11/19 00:23:37;;;;;;;1.27;1.17;;;17.30;79.80;;;;;;5032681;28;20186;-68
2022/11/19 00:26:09;;;;;;;1.65;1.30;;;17.30;79.80;;;;;;5032764;28;20707;-68
2022/11/19 00:28:36;;;;;;;2.45;1.25;;;17.30;79.80;;;;;;5033582;28;20172;-68
2022/11/19 00:31:06;;;;;;;0.93;0.90;;;17.30;79.80;;;;;;5032507;28;20251;-70
2022/11/19 00:33:32;;;;;;;2.58;1.27;;;17.30;79.90;;;;;;5016243;28;20279;-68
2022/11/19 00:36:00;;;;;;;1.80;1.38;;;17.30;79.80;;;;;;5032573;28;20223;-68
2022/11/19 00:38:28;;;;;;;1.98;1.08;;;17.30;79.80;;;;;;5032052;28;20183;-69
2022/11/19 00:40:53;;;;;;;1.35;1.23;;;17.30;79.70;;;;;;5032295;28;20210;-68
2022/11/19 00:46:05;;;;;;;1.27;1.17;;;17.30;79.70;;;;;;5033521;28;20251;-68
2022/11/19 00:48:31;;;;;;;1.73;1.33;;;17.30;79.80;;;;;;5031915;28;20565;-69
2022/11/19 00:50:56;;;;;;;2.47;1.40;;;17.30;79.70;;;;;;5032194;28;20211;-68
2022/11/19 00:53:22;;;;;;;1.90;1.40;;;17.40;79.90;;;;;;5015649;28;20209;-68
2022/11/19 00:55:48;;;;;;;1.30;1.15;;;17.30;79.70;;;;;;5031959;28;20249;-68
2022/11/19 00:58:14;;;;;;;1.80;1.30;;;17.30;79.70;;;;;;5031645;28;20225;-69
2022/11/19 01:00:39;;;;;;;1.83;1.40;;;17.30;79.80;;;;;;5015328;28;20203;-68
2022/11/19 01:03:05;;;;;;;1.42;1.33;;;17.30;79.70;;;;;;5031688;28;20637;-69
2022/11/19 01:05:31;;;;;;;1.30;1.20;;;17.40;79.90;;;;;;5032100;28;20191;-68
2022/11/19 01:07:57;;;;;;;2.25;1.35;;;17.30;79.80;;;;;;5031667;28;20186;-66
2022/11/19 01:10:23;;;;;;;1.55;1.30;;;17.30;79.80;;;;;;5031609;28;20191;-68
2022/11/19 01:15:33;;;;;;;1.20;1.10;;;17.30;79.80;;;;;;5032016;28;20191;-68
2022/11/19 01:17:59;;;;;;;1.38;1.27;;;17.30;79.70;;;;;;5014801;28;20226;-68
2022/11/19 01:20:25;;;;;;;1.10;1.00;;;17.30;79.50;;;;;;5031605;28;20171;-68
2022/11/19 01:22:50;;;;;;;1.63;1.20;;;17.30;79.50;;;;;;5015237;28;20202;-69
2022/11/19 01:25:16;;;;;;;1.30;1.10;;;17.30;79.50;;;;;;5031474;28;20183;-68
2022/11/19 01:27:42;;;;;;;1.40;1.30;;;17.30;79.50;;;;;;5031487;28;20195;-68
2022/11/19 01:30:08;;;;;;;1.50;1.17;;;17.30;79.50;;;;;;5031356;28;20183;-69
2022/11/19 01:32:34;;;;;;;1.60;1.17;;;17.30;79.50;;;;;;5014806;28;20238;-68
2022/11/19 01:35:00;;;;;;;1.13;0.90;;;17.30;79.40;;;;;;5031307;28;20669;-68
2022/11/19 01:37:26;;;;;;;0.98;0.98;;;17.30;79.40;;;;;;5031280;28;20218;-68
2022/11/19 01:39:52;;;;;;;1.27;1.17;;;17.30;79.40;;;;;;5031377;28;20607;-69
2022/11/19 01:45:34;;;;;;;1.70;1.10;;;17.30;79.40;;;;;;5031382;28;20277;-68
2022/11/19 01:48:17;;;;;;;1.23;1.00;;;17.30;79.50;;;;;;5014400;28;20183;-68
2022/11/19 01:51:02;;;;;;;1.33;0.90;;;17.30;79.50;;;;;;5031037;28;20207;-68
2022/11/19 01:53:34;;;;;;;1.10;1.00;;;17.30;79.30;;;;;;5032374;28;20184;-68
2022/11/19 01:56:04;;;;;;;1.27;0.93;;;17.30;79.30;;;;;;5030985;28;20218;-69
2022/11/19 01:58:38;;;;;;;1.00;0.90;;;17.30;79.30;;;;;;5030824;28;20556;-69
2022/11/19 02:01:05;;;;;;;2.00;1.05;;;17.30;79.30;;;;;;5031393;28;20222;-68
2022/11/19 02:03:33;;;;;;;1.00;0.90;;;17.30;79.50;;;;;;5031056;28;20281;-68
2022/11/19 02:06:01;;;;;;;1.30;0.98;;;17.30;79.30;;;;;;5031370;28;20174;-68
2022/11/19 02:08:44;;;;;;;1.30;1.20;;;17.30;79.30;;;;;;5030954;28;20254;-68
2022/11/19 02:11:27;;;;;;;0.95;0.95;;;17.30;79.40;;;;;;5014520;28;20211;-68
2022/11/19 02:14:28;;;;;;;1.70;1.15;;;17.30;79.40;;;;;;5030964;28;20178;-68
2022/11/19 02:17:17;;;;;;;1.55;1.00;;;17.30;79.40;;;;;;5031098;28;20222;-67
2022/11/19 02:20:01;;;;;;;1.15;0.90;;;17.30;79.20;;;;;;5032184;28;20164;-68
2022/11/19 02:22:48;;;;;;;0.98;0.98;;;17.30;79.30;;;;;;5015109;28;20207;-68
2022/11/19 02:25:42;;;;;;;1.15;1.08;;;17.30;79.20;;;;;;5034906;28;20194;-68
2022/11/19 02:28:19;;;;;;;1.40;1.00;;;17.30;79.20;;;;;;5034829;28;20167;-68
2022/11/19 02:33:53;;;;;;;1.08;0.98;;;17.30;79.10;;;;;;5069068;28;20557;-68
2022/11/19 02:36:27;;;;;;;1.05;0.90;;;17.30;79.20;;;;;;5063811;28;20205;-68
2022/11/19 02:39:04;;;;;;;1.17;0.98;;;17.30;79.20;;;;;;5063368;28;20193;-68
2022/11/19 02:41:48;;;;;;;1.27;1.10;;;17.30;79.20;;;;;;5046880;28;20210;-68
2022/11/19 02:47:24;;;;;;;0.80;0.80;;;17.30;79.10;;;;;;5046926;28;20198;-68
2022/11/19 02:49:58;;;;;;;1.48;1.00;;;17.30;79.10;;;;;;5046512;28;20187;-68
2022/11/19 02:52:24;;;;;;;1.10;0.90;;;17.30;79.00;;;;;;5046708;28;20210;-68
2022/11/19 02:54:49;;;;;;;1.10;0.90;;;17.30;79.00;;;;;;5030356;28;20248;-68
2022/11/19 02:57:15;;;;;;;0.90;0.82;;;17.30;79.10;;;;;;5030071;28;20190;-68
2022/11/19 03:06:09;;;;;;;0.85;0.80;;;17.30;79.00;;;;;;5043154;28;20668;-69
2022/11/19 03:08:35;;;;;;;0.90;0.75;;;17.30;79.00;;;;;;5026447;28;20191;-68
2022/11/19 03:11:11;;;;;;;1.00;0.90;;;17.30;79.00;;;;;;5026571;28;20199;-68
2022/11/19 03:16:42;;;;;;;1.38;0.95;;;17.30;79.10;;;;;;5039520;28;20202;-68
2022/11/19 03:19:30;;;;;;;1.30;0.90;;;17.30;79.10;;;;;;5047380;28;20186;-68
2022/11/19 03:22:07;;;;;;;1.65;0.85;;;17.30;79.00;;;;;;5047499;28;20205;-68
2022/11/19 03:24:40;;;;;;;1.02;0.93;;;17.30;79.00;;;;;;5062977;28;20214;-68
2022/11/19 03:27:33;;;;;;;0.80;0.80;;;17.30;78.90;;;;;;5029742;28;20218;-67
2022/11/19 03:30:01;;;;;;;1.05;0.90;;;17.30;79.00;;;;;;5045300;28;20213;-68
2022/11/19 03:33:14;;;;;;;1.95;1.05;;;17.30;79.10;;;;;;5047223;28;20214;-68
2022/11/19 03:35:51;;;;;;;1.13;1.02;;;17.20;78.90;;;;;;5028124;28;20199;-68
2022/11/19 03:38:28;;;;;;;1.13;0.88;;;17.30;79.00;;;;;;5024603;28;20199;-68
2022/11/19 03:40:56;;;;;;;0.82;0.73;;;17.30;79.00;;;;;;5029053;28;20190;-68
2022/11/19 03:43:30;;;;;;;1.00;0.90;;;17.30;79.00;;;;;;5041425;28;20187;-67
2022/11/19 03:45:58;;;;;;;0.70;0.70;;;17.30;79.60;;;;;;5016189;28;20187;-67
2022/11/19 03:48:26;;;;;;;0.82;0.80;;;17.30;79.00;;;;;;5032362;28;20187;-68
2022/11/19 03:51:02;;;;;;;1.13;1.02;;;17.30;79.00;;;;;;5032614;28;20680;-68
2022/11/19 03:53:28;;;;;;;0.70;0.70;;;17.30;78.90;;;;;;5032711;28;20689;-68
2022/11/19 03:56:15;;;;;;;0.60;0.60;;;17.30;79.00;;;;;;5032553;28;20261;-68
2022/11/19 03:58:45;;;;;;;1.05;0.95;;;17.30;79.10;;;;;;5015466;28;20175;-68
2022/11/19 04:01:10;;;;;;;0.80;0.80;;;17.30;79.00;;;;;;5033490;28;20179;-68
2022/11/19 04:03:37;;;;;;;1.20;0.80;;;17.30;79.00;;;;;;5015823;28;20191;-68
2022/11/19 04:06:04;;;;;;;1.17;0.70;;;17.30;79.00;;;;;;5032302;28;20218;-67
2022/11/19 04:08:30;;;;;;;1.13;0.80;;;17.30;79.00;;;;;;5033265;28;20645;-68
2022/11/19 04:10:57;;;;;;;0.90;0.80;;;17.20;78.80;;;;;;5032293;28;20331;-68
2022/11/19 04:13:23;;;;;;;0.73;0.70;;;17.30;78.80;;;;;;5015338;28;20723;-68
2022/11/19 04:15:50;;;;;;;0.80;0.80;;;17.30;78.90;;;;;;5032195;28;20214;-68
2022/11/19 04:18:15;;;;;;;1.02;0.90;;;17.30;79.00;;;;;;5031747;28;20218;-68
2022/11/19 04:20:44;;;;;;;1.00;0.90;;;17.30;78.80;;;;;;5031467;28;20188;-68
2022/11/19 04:23:09;;;;;;;0.90;0.60;;;17.30;78.90;;;;;;5033319;28;20207;-68
2022/11/19 04:25:35;;;;;;;0.70;0.70;;;17.30;78.90;;;;;;5015534;28;20221;-68
2022/11/19 04:28:01;;;;;;;0.70;0.70;;;17.30;79.00;;;;;;5031860;28;20194;-68
2022/11/19 04:30:28;;;;;;;0.50;0.50;;;17.30;78.90;;;;;;5032970;28;20179;-68
2022/11/19 04:32:54;;;;;;;0.60;0.60;;;17.30;79.00;;;;;;5032761;28;20215;-68
2022/11/19 04:35:20;;;;;;;0.70;0.70;;;17.30;79.00;;;;;;5031668;28;20245;-68
2022/11/19 04:37:47;;;;;;;0.68;0.68;;;17.30;78.90;;;;;;5015113;28;20256;-68
2022/11/19 04:40:13;;;;;;;0.77;0.77;;;17.30;79.00;;;;;;5031352;28;20195;-68
2022/11/19 04:42:39;;;;;;;0.90;0.77;;;17.30;79.00;;;;;;5014987;28;20246;-68
2022/11/19 04:45:06;;;;;;;0.60;0.60;;;17.30;79.00;;;;;;5031726;28;20183;-68
2022/11/19 04:47:32;;;;;;;0.70;0.70;;;17.30;79.00;;;;;;5031668;28;20278;-68
2022/11/19 04:49:57;;;;;;;0.90;0.80;;;17.30;79.00;;;;;;5014761;28;20202;-68
2022/11/19 04:52:23;;;;;;;0.60;0.60;;;17.30;78.90;;;;;;5031267;28;20207;-68
2022/11/19 04:54:49;;;;;;;0.60;0.60;;;17.30;78.90;;;;;;5014231;28;20191;-68
2022/11/19 04:57:14;;;;;;;1.33;0.60;;;17.30;78.90;;;;;;5030894;28;20207;-68
2022/11/19 04:59:40;;;;;;;0.55;0.55;;;17.30;78.90;;;;;;5014625;28;20194;-68
2022/11/19 05:02:06;;;;;;;0.88;0.70;;;17.30;78.80;;;;;;5014688;28;20272;-68
2022/11/19 05:04:32;;;;;;;0.60;0.50;;;17.30;78.90;;;;;;5031372;28;20183;-68
2022/11/19 05:06:57;;;;;;;0.70;0.70;;;17.30;78.80;;;;;;5014647;28;20183;-68
2022/11/19 05:09:23;;;;;;;0.70;0.70;;;17.30;78.80;;;;;;5013568;28;20195;-68
2022/11/19 05:11:49;;;;;;;0.60;0.60;;;17.30;78.90;;;;;;5047587;28;20677;-68
2022/11/19 05:14:14;;;;;;;0.70;0.70;;;17.30;78.90;;;;;;5031024;28;20198;-68
2022/11/19 05:16:40;;;;;;;0.50;0.50;;;17.30;78.80;;;;;;5014457;28;20179;-67
2022/11/19 05:19:06;;;;;;;1.95;0.60;;;17.30;78.80;;;;;;5030405;28;20237;-68
2022/11/19 05:21:31;;;;;;;1.33;0.70;;;17.20;78.80;;;;;;5030740;28;20210;-68
2022/11/19 05:23:57;;;;;;;0.80;0.80;;;17.30;78.80;;;;;;5030771;28;20195;-69
2022/11/19 05:26:23;;;;;;;0.82;0.82;;;17.30;78.80;;;;;;5013788;28;20199;-68
2022/11/19 05:28:49;;;;;;;0.60;0.60;;;17.30;78.80;;;;;;5014164;28;20191;-68
2022/11/19 05:31:14;;;;;;;0.50;0.50;;;17.30;78.80;;;;;;5014136;28;20222;-69
2022/11/19 05:33:40;;;;;;;0.82;0.60;;;17.30;78.90;;;;;;5047298;28;20191;-69
2022/11/19 05:36:06;;;;;;;0.85;0.55;;;17.20;78.80;;;;;;5024265;28;20241;-68
2022/11/19 05:38:32;;;;;;;0.50;0.50;;;17.20;78.80;;;;;;5030281;28;20184;-68
2022/11/19 05:40:58;;;;;;;0.70;0.70;;;17.30;78.80;;;;;;5014122;28;20195;-68
2022/11/19 05:43:23;;;;;;;0.75;0.70;;;17.20;78.70;;;;;;5014215;28;20198;-69
2022/11/19 05:45:49;;;;;;;0.82;0.68;;;17.20;78.70;;;;;;5013904;28;20209;-69
2022/11/19 05:48:15;;;;;;;0.50;0.50;;;17.30;78.90;;;;;;5013754;28;20183;-68
2022/11/19 05:50:41;;;;;;;0.63;0.60;;;17.30;78.80;;;;;;5030424;28;20187;-68
2022/11/19 05:53:08;;;;;;;0.60;0.60;;;17.30;78.90;;;;;;5030347;28;20266;-68
2022/11/19 05:55:34;;;;;;;0.55;0.55;;;17.30;78.80;;;;;;5030306;28;20183;-69
2022/11/19 05:57:59;;;;;;;1.02;0.55;;;17.20;78.90;;;;;;5030356;28;20187;-68
2022/11/19 06:00:25;;;;;;;0.52;0.52;;;17.30;78.80;;;;;;5030083;28;20187;-68
2022/11/19 06:02:51;;;;;;;0.75;0.75;;;17.30;78.80;;;;;;5029938;28;20214;-68
2022/11/19 06:05:17;;;;;;;0.60;0.60;;;17.30;78.80;;;;;;5030135;28;20213;-68
2022/11/19 06:07:42;;;;;;;0.60;0.60;;;17.30;78.80;;;;;;5029962;28;20187;-68
2022/11/19 06:10:09;;;;;;;0.85;0.65;;;17.30;78.80;;;;;;5013454;28;20668;-68
2022/11/19 06:12:34;;;;;;;0.80;0.80;;;17.30;78.80;;;;;;5029900;28;20226;-67
2022/11/19 06:15:00;;;;;;;2.03;0.65;;;17.30;78.80;;;;;;5030005;28;20187;-68
2022/11/19 06:17:27;;;;;;;1.15;0.60;;;17.30;78.80;;;;;;5031005;28;20185;-68
2022/11/19 06:19:53;;;;;;;0.70;0.70;;;17.20;78.70;;;;;;5012960;28;20194;-68
2022/11/19 06:22:19;;;;;;;0.60;0.60;;;17.30;78.80;;;;;;5030065;28;20215;-68
2022/11/19 06:24:44;;;;;;;0.70;0.70;;;17.20;78.70;;;;;;5029973;28;20194;-68
2022/11/19 06:27:10;;;;;;;0.40;0.40;;;17.30;78.80;;;;;;5031287;28;20215;-68
2022/11/19 06:29:36;;;;;;;0.70;0.60;;;17.20;78.60;;;;;;5013183;28;20651;-68
2022/11/19 06:32:02;;;;;;;0.93;0.60;;;17.20;78.70;;;;;;5013198;28;20273;-68
2022/11/19 06:34:27;;;;;;;0.80;0.57;;;17.20;78.70;;;;;;5013520;28;20191;-68
2022/11/19 06:36:53;;;;;;;0.82;0.60;;;17.30;78.80;;;;;;5013345;28;20187;-69
2022/11/19 06:39:19;;;;;;;0.60;0.60;;;17.20;78.70;;;;;;5013250;28;20186;-68
2022/11/19 06:41:47;;;;;;;0.52;0.52;;;17.20;78.70;;;;;;5013453;28;20211;-68
2022/11/19 06:44:13;;;;;;;0.63;0.63;;;17.20;78.70;;;;;;5029644;28;20187;-69
2022/11/19 06:46:39;;;;;;;0.85;0.50;;;17.30;78.80;;;;;;5029548;28;20206;-68
2022/11/19 06:49:05;;;;;;;0.77;0.60;;;17.30;78.80;;;;;;5029675;28;20195;-69
2022/11/19 06:51:32;;;;;;;1.08;0.75;;;17.30;78.80;;;;;;5029263;28;20815;-68
2022/11/19 06:53:57;;;;;;;0.70;0.50;;;17.30;78.80;;;;;;5029728;28;20199;-69
2022/11/19 06:56:23;;;;;;;0.50;0.50;;;17.30;78.80;;;;;;5029701;28;20187;-69
2022/11/19 06:58:50;;;;;;;0.80;0.65;;;17.30;78.80;;;;;;5012843;28;20199;-69
2022/11/19 07:01:16;;;;;;;0.60;0.60;;;17.30;78.80;;;;;;5013363;28;20203;-69
2022/11/19 07:03:42;;;;;;;0.68;0.65;;;17.30;78.80;;;;;;5030545;28;20186;-70
2022/11/19 07:06:08;;;;;;;1.52;0.70;;;17.30;78.80;;;;;;5028857;28;20183;-70
2022/11/19 07:08:36;;;;;;;0.70;0.70;;;17.30;78.80;;;;;;5012139;28;20237;-70
2022/11/19 07:11:24;;;;;;;0.80;0.80;;;17.30;78.80;;;;;;5026851;28;20193;-69
2022/11/19 07:13:58;;;;;;;1.33;0.60;;;17.30;78.80;;;;;;5028627;28;20179;-70
2022/11/19 07:16:34;;;;;;;0.68;0.60;;;17.30;78.70;;;;;;5028814;28;20286;-70
2022/11/19 07:19:04;;;;;;;0.82;0.70;;;17.30;78.80;;;;;;5029621;28;20191;-70
2022/11/19 07:21:30;;;;;;;0.65;0.50;;;17.30;78.70;;;;;;5032771;28;20257;-70
2022/11/19 07:23:57;;;;;;;1.42;0.60;;;17.30;78.70;;;;;;5014795;28;20183;-71
2022/11/19 07:26:24;;;;;;;0.80;0.60;;;17.30;78.70;;;;;;5033757;28;20238;-71
2022/11/19 07:28:50;;;;;;;0.50;0.40;;;17.30;78.70;;;;;;5013928;28;20180;-70
2022/11/19 07:31:16;;;;;;;1.38;0.70;;;17.30;78.80;;;;;;5015360;28;20207;-70
2022/11/19 07:33:42;;;;;;;0.80;0.75;;;17.30;78.80;;;;;;5015585;28;20187;-70
2022/11/19 07:36:10;;;;;;;0.60;0.60;;;17.30;78.80;;;;;;5013974;28;20219;-70
2022/11/19 07:38:37;;;;;;;0.50;0.50;;;17.30;78.80;;;;;;5014648;28;20184;-70
2022/11/19 07:42:48;;;;;;;1.55;0.60;;;17.30;78.80;;;;;;5016244;28;20179;-70
2022/11/19 07:43:53;;;;;;;0.60;0.60;;;17.20;78.70;;;;;;5032710;28;20217;-70
2022/11/19 07:46:19;;;;;;;0.70;0.70;;;17.30;78.70;;;;;;5032792;28;20187;-70
2022/11/19 07:48:45;;;;;;;0.47;0.47;;;17.20;78.60;;;;;;5013081;28;20211;-70
2022/11/19 07:51:11;;;;;;;0.60;0.60;;;17.30;78.80;;;;;;5032486;28;20221;-70
2022/11/19 07:53:37;;;;;;;0.77;0.60;;;17.30;78.80;;;;;;5032261;28;20202;-69
2022/11/19 07:56:03;;;;;;;0.95;0.57;;;17.30;78.80;;;;;;5015684;28;20195;-69
2022/11/19 07:58:29;;;;;;;0.90;0.57;;;17.30;78.80;;;;;;5015186;28;20175;-70
2022/11/19 08:00:55;;;;;;;0.68;0.60;;;17.30;78.80;;;;;;5032647;28;20202;-70
2022/11/19 08:03:20;;;;;;;0.77;0.77;;;17.30;78.80;;;;;;5031785;28;20573;-69
2022/11/19 08:05:46;;;;;;;0.93;0.50;;;17.20;78.60;;;;;;5015830;28;20183;-69
2022/11/19 08:08:12;;;;;;;1.13;0.50;;;17.30;78.70;;;;;;5048986;28;20186;-69
2022/11/19 08:10:38;;;;;;;1.25;0.80;;;17.30;78.60;;;;;;5033378;28;20217;-69
2022/11/19 08:13:03;;;;;;;1.10;1.08;;;17.30;78.80;;;;;;5032408;28;20222;-70
2022/11/19 08:15:31;;;;;;;0.85;0.77;;;17.30;78.70;;;;;;5015694;28;20187;-70
2022/11/19 08:18:14;;;;;;;0.68;0.57;;;17.30;78.70;;;;;;5032872;28;20310;-69
2022/11/19 08:20:42;;;;;;;0.75;0.70;;;17.30;78.70;;;;;;5031053;28;20193;-70
2022/11/19 08:23:10;;;;;;;0.73;0.73;;;17.30;78.70;;;;;;5015052;28;20210;-70
2022/11/19 08:25:37;;;;;;;0.82;0.70;;;17.30;78.60;;;;;;5031484;28;20195;-70
2022/11/19 08:28:04;;;;;;;0.85;0.60;;;17.30;78.70;;;;;;5032750;28;20285;-69
2022/11/19 08:30:32;;;;;;;0.93;0.77;;;17.30;78.60;;;;;;5031447;28;20190;-70
2022/11/19 08:32:58;;;;;;;0.68;0.68;;;17.30;78.70;;;;;;5031756;28;20344;-69
2022/11/19 08:35:24;;;;;;;1.73;0.70;;;17.30;78.70;;;;;;5032017;28;20299;-70
2022/11/19 08:37:50;;;;;;;0.70;0.70;;;17.30;78.70;;;;;;5030501;28;20230;-69
2022/11/19 08:40:16;;;;;;;0.80;0.80;;;17.30;78.60;;;;;;5029047;28;20253;-69
2022/11/19 08:43:00;;;;;;;0.85;0.80;;;17.30;79.30;;;;;;5013624;28;20267;-69
2022/11/19 08:45:38;;;;;;;0.95;0.65;;;17.30;78.60;;;;;;5031843;28;20332;-69
2022/11/19 08:48:09;;;;;;;1.67;0.88;;;17.30;78.70;;;;;;5032892;28;20183;-70
2022/11/19 08:50:35;;;;;;;0.80;0.80;;;17.30;78.70;;;;;;5014800;28;20183;-69
2022/11/19 08:53:04;;;;;;;1.27;0.80;;;17.30;78.70;;;;;;5031412;28;20231;-70
2022/11/19 08:55:31;;;;;;;0.68;0.68;;;17.30;78.80;;;;;;5013744;28;20204;-69
2022/11/19 08:58:06;;;;;;;1.85;0.70;;;17.30;78.80;;;;;;5015030;28;20195;-69
2022/11/19 09:00:35;;;;;;;0.50;0.50;;;17.30;78.70;;;;;;5014556;28;20186;-69
2022/11/19 09:03:01;;;;;;;0.90;0.77;;;17.30;78.70;;;;;;5014617;28;20574;-70
2022/11/19 09:05:27;;;;;;;0.73;0.73;;;17.30;78.70;;;;;;5014926;28;20179;-69
2022/11/19 09:07:54;;;;;;;1.55;0.80;;;17.30;78.70;;;;;;5031313;28;20273;-69
2022/11/19 09:10:20;;;;;;;0.75;0.75;;;17.30;78.70;;;;;;5027660;28;20183;-70
2022/11/19 09:12:46;;;;;;;0.68;0.68;;;17.30;78.60;;;;;;5031064;28;20242;-70
2022/11/19 09:15:12;;;;;;;1.42;0.70;;;17.30;78.60;;;;;;5030945;28;20188;-70
2022/11/19 09:17:38;;;;;;;0.80;0.80;;;17.40;78.70;;;;;;5008291;28;20180;-70
2022/11/19 09:20:05;;;;;;;0.80;0.80;;;17.30;78.50;;;;;;5024484;28;20187;-70
2022/11/19 09:22:31;;;;;;;0.90;0.80;;;17.40;78.70;;;;;;5030823;28;20302;-70
2022/11/19 09:24:56;;;;;;;0.80;0.68;;;17.40;78.70;;;;;;5014497;28;20330;-70
2022/11/19 09:27:22;;;;;;;1.02;0.75;;;17.30;78.70;;;;;;5032332;28;20222;-70
2022/11/19 09:29:48;;;;;;;2.45;0.85;;;17.30;78.70;;;;;;5014073;28;20186;-70
2022/11/19 09:32:14;;;;;;;1.75;0.85;;;17.40;78.70;;;;;;5030603;28;20727;-69
2022/11/19 09:34:40;;;;;;;1.15;0.98;;;17.40;78.60;;;;;;5030764;28;20187;-70
2022/11/19 09:37:07;;;;;;;0.75;0.75;;;17.40;78.70;;;;;;5014226;28;20544;-69
2022/11/19 09:39:34;;;;;;;0.80;0.80;;;17.40;78.60;;;;;;5030402;28;20190;-69
2022/11/19 09:42:13;;;;;;;1.73;0.75;;;17.40;78.60;;;;;;5030198;28;20215;-70
2022/11/19 09:45:18;;;;;;;0.70;0.70;;;17.40;78.60;;;;;;5030336;28;20274;-69
2022/11/19 09:47:55;;;;;;;1.23;0.80;;;17.40;78.60;;;;;;5013050;28;20187;-70
2022/11/19 09:50:27;;;;;;;0.82;0.70;;;17.40;78.70;;;;;;5030656;28;20206;-70
2022/11/19 09:52:59;;;;;;;1.58;1.02;;;17.40;78.70;;;;;;5031302;28;20772;-69
2022/11/19 09:55:39;;;;;;;0.88;0.88;;;17.40;78.70;;;;;;5031659;28;20250;-69
2022/11/19 09:58:17;;;;;;;1.02;0.70;;;17.40;78.70;;;;;;5031491;28;20190;-70
2022/11/19 10:00:43;;;;;;;0.70;0.70;;;17.40;78.80;;;;;;5031074;28;20191;-70
2022/11/19 10:03:28;;;;;;;1.00;0.80;;;17.40;78.80;;;;;;5014495;28;20242;-70
2022/11/19 10:06:42;;;;;;;2.67;0.80;;;17.30;78.70;;;;;;5013590;28;20198;-70
2022/11/19 10:09:38;;;;;;;0.60;0.60;;;17.40;78.80;;;;;;5032176;28;20225;-70
2022/11/19 10:12:34;;;;;;;1.27;0.80;;;17.40;78.70;;;;;;5032599;28;20740;-69
2022/11/19 10:15:35;;;;;;;0.90;0.60;;;17.40;78.80;;;;;;5032358;28;20191;-69
2022/11/19 10:18:18;;;;;;;0.90;0.60;;;17.40;78.80;;;;;;5031071;28;20203;-69
2022/11/19 10:20:52;;;;;;;1.15;0.90;;;17.40;78.80;;;;;;5031209;28;20183;-69
2022/11/19 10:23:38;;;;;;;1.15;0.70;;;17.40;78.80;;;;;;5015189;28;20207;-69
2022/11/19 10:26:12;;;;;;;0.75;0.70;;;17.40;78.70;;;;;;5030049;28;20194;-70
2022/11/19 10:28:46;;;;;;;0.80;0.70;;;17.30;78.70;;;;;;5031254;28;20214;-70
2022/11/19 10:31:38;;;;;;;1.70;0.82;;;17.30;78.60;;;;;;5013636;28;20179;-70
2022/11/19 10:34:24;;;;;;;1.20;1.00;;;17.40;78.80;;;;;;5029857;28;20227;-70
2022/11/19 10:37:07;;;;;;;2.80;0.70;;;17.40;78.80;;;;;;5029901;28;20346;-69
2022/11/19 10:39:42;;;;;;;2.17;1.08;;;17.40;79.50;;;;;;5012295;28;20374;-70
2022/11/19 10:42:19;;;;;;;2.63;0.80;;;17.40;79.40;;;;;;5029526;28;20210;-71
2022/11/19 10:45:14;;;;;;;0.95;0.60;;;17.40;79.30;;;;;;5029873;28;20305;-70
2022/11/19 10:48:11;;;;;;;0.82;0.70;;;17.40;79.20;;;;;;5029762;28;20633;-72
2022/11/19 10:50:38;;;;;;;0.77;0.77;;;17.40;79.30;;;;;;5028948;28;20192;-71
2022/11/19 10:53:32;;;;;;;2.08;0.75;;;17.40;79.30;;;;;;5013181;28;20207;-70
2022/11/19 10:56:08;;;;;;;1.85;0.70;;;17.40;79.20;;;;;;5032844;28;20191;-70
2022/11/19 10:58:55;;;;;;;1.00;0.80;;;17.40;78.90;;;;;;5033534;28;20186;-70
2022/11/19 11:01:38;;;;;;;1.02;0.70;;;17.40;79.00;;;;;;5034895;28;20195;-70
2022/11/19 11:04:14;;;;;;;1.35;0.60;;;17.40;79.20;;;;;;5050320;28;20186;-70
2022/11/19 11:07:02;;;;;;;1.50;0.85;;;17.40;78.90;;;;;;5033641;28;20183;-70
2022/11/19 11:09:41;;;;;;;1.30;0.93;;;17.40;78.90;;;;;;5029996;28;20676;-70
2022/11/19 11:15:21;;;;;;;1.10;1.00;;;17.40;78.60;;;;;;5025931;28;20186;-71
2022/11/19 11:18:03;;;;;;;1.08;0.93;;;17.40;78.60;;;;;;5019290;28;20180;-71
2022/11/19 11:20:30;;;;;;;1.10;1.00;;;17.40;78.70;;;;;;5010854;28;20266;-71
2022/11/19 11:23:14;;;;;;;1.88;1.00;;;17.40;78.70;;;;;;5011082;28;20250;-71
2022/11/19 11:25:51;;;;;;;1.70;1.08;;;17.40;78.80;;;;;;5013250;28;20206;-70
2022/11/19 11:28:20;;;;;;;1.52;1.42;;;17.40;78.80;;;;;;5015091;28;20187;-70
2022/11/19 11:31:09;;;;;;;1.35;1.23;;;17.40;78.60;;;;;;5014975;28;20211;-70
2022/11/19 11:33:54;;;;;;;2.17;1.38;;;17.30;78.50;;;;;;5031542;28;20676;-70
2022/11/19 11:36:25;;;;;;;2.65;2.08;;;17.40;78.40;;;;;;5032880;28;20183;-70
2022/11/19 11:38:56;;;;;;;2.30;1.58;;;17.40;78.60;;;;;;5033078;28;20251;-70
2022/11/19 11:41:39;;;;;;;1.70;1.60;;;17.40;78.50;;;;;;5032533;28;20207;-70
2022/11/19 11:44:21;;;;;;;2.30;1.67;;;17.40;78.40;;;;;;5013939;28;20282;-70
2022/11/19 11:47:10;;;;;;;2.00;1.80;;;17.30;78.20;;;;;;5031233;28;20179;-70
2022/11/19 11:49:41;;;;;;;2.53;1.73;;;17.40;78.30;;;;;;5014566;28;20188;-70
2022/11/19 11:52:10;;;;;;;2.10;1.73;;;17.40;78.30;;;;;;5032330;28;20211;-71
2022/11/19 11:55:13;;;;;;;2.45;1.88;;;17.30;78.30;;;;;;4996754;28;20242;-70
2022/11/19 11:58:02;;;;;;;2.60;2.00;;;17.40;78.30;;;;;;5030063;28;20249;-70
2022/11/19 12:00:46;;;;;;;2.08;1.75;;;17.40;78.40;;;;;;5030375;28;20263;-70
2022/11/19 12:03:18;;;;;;;2.42;2.00;;;17.40;78.30;;;;;;5014869;28;20293;-71
2022/11/19 12:06:02;;;;;;;3.00;1.67;;;17.40;78.30;;;;;;5032189;28;20257;-70
2022/11/19 12:08:55;;;;;;;2.17;1.98;;;17.40;78.20;;;;;;5014899;28;20195;-70
2022/11/19 12:11:55;;;;;;;2.17;1.98;;;17.40;78.00;;;;;;5030845;28;20238;-71
2022/11/19 12:14:39;;;;;;;2.08;1.70;;;17.40;78.20;;;;;;5031137;28;20203;-70
2022/11/19 12:17:41;;;;;;;1.58;1.48;;;17.40;78.10;;;;;;5032129;28;20665;-70
2022/11/19 12:20:44;;;;;;;1.90;1.70;;;17.40;78.00;;;;;;5030466;28;20201;-71
2022/11/19 12:23:36;;;;;;;2.30;2.05;;;17.40;78.00;;;;;;5030893;28;20207;-70
2022/11/19 12:26:42;;;;;;;2.00;1.80;;;17.40;78.00;;;;;;5030758;28;20218;-70
2022/11/19 12:29:26;;;;;;;1.75;1.58;;;17.40;78.00;;;;;;5013908;28;20207;-70
2022/11/19 12:31:58;;;;;;;1.80;1.60;;;17.40;78.00;;;;;;5031633;28;20269;-70
2022/11/19 12:35:09;;;;;;;2.17;1.48;;;17.40;78.00;;;;;;5030941;28;20262;-70
2022/11/19 12:37:49;;;;;;;4.30;1.88;;;17.40;78.00;;;;;;5031200;28;20191;-70
2022/11/19 12:40:30;;;;;;;2.30;1.33;;;17.40;78.10;;;;;;5029137;28;20216;-70
2022/11/19 12:43:44;;;;;;;2.00;1.80;;;17.40;78.00;;;;;;5030950;28;20219;-70
2022/11/19 12:46:51;;;;;;;2.00;1.60;;;17.40;77.90;;;;;;5010538;28;20641;-70
2022/11/19 12:49:44;;;;;;;1.48;1.20;;;17.40;78.00;;;;;;4986409;28;20200;-70
2022/11/19 12:52:34;;;;;;;1.50;1.40;;;17.40;78.00;;;;;;5027254;28;20218;-70
2022/11/19 12:55:39;;;;;;;1.58;1.48;;;17.40;78.10;;;;;;5032396;28;20180;-70
2022/11/19 12:58:37;;;;;;;1.77;1.42;;;17.40;78.00;;;;;;5013444;28;20190;-70
2022/11/19 13:01:13;;;;;;;1.48;1.38;;;17.40;78.00;;;;;;5013809;28;20290;-70
2022/11/19 13:04:02;;;;;;;2.75;1.30;;;17.40;78.00;;;;;;5028555;28;20192;-70
2022/11/19 13:06:43;;;;;;;1.67;1.45;;;17.40;78.00;;;;;;5013037;28;20203;-70
2022/11/19 13:09:24;;;;;;;3.30;1.40;;;17.40;78.00;;;;;;5011082;28;20194;-70
2022/11/19 13:11:59;;;;;;;1.33;1.23;;;17.40;78.00;;;;;;5012374;28;20287;-70
2022/11/19 13:14:42;;;;;;;1.77;1.42;;;17.40;78.00;;;;;;4995065;28;20187;-70
2022/11/19 13:17:34;;;;;;;1.60;1.30;;;17.40;78.00;;;;;;5010494;28;20290;-71
2022/11/19 13:20:24;;;;;;;1.83;1.60;;;17.40;78.00;;;;;;5012052;28;20218;-70
2022/11/19 13:22:57;;;;;;;1.42;1.33;;;17.40;78.00;;;;;;4994578;28;20204;-70
2022/11/19 13:25:34;;;;;;;2.55;1.30;;;17.40;78.00;;;;;;5011244;28;20191;-70
2022/11/19 13:28:09;;;;;;;1.75;1.40;;;17.40;78.00;;;;;;5011089;28;20234;-70
2022/11/19 13:30:49;;;;;;;1.50;1.30;;;17.40;78.00;;;;;;5010560;28;20245;-70
2022/11/19 13:33:32;;;;;;;1.35;1.17;;;17.50;78.20;;;;;;5010834;28;20226;-70
2022/11/19 13:36:41;;;;;;;1.52;1.42;;;17.40;78.10;;;;;;4994727;28;20192;-70
2022/11/19 13:39:19;;;;;;;1.58;1.40;;;17.40;78.10;;;;;;5011805;28;20172;-70
2022/11/19 13:44:40;;;;;;;2.20;1.52;;;17.50;78.30;;;;;;5011912;28;20222;-70
2022/11/19 13:47:20;;;;;;;2.08;1.15;;;17.50;78.00;;;;;;5010848;28;20191;-70
2022/11/19 13:49:59;;;;;;;1.67;1.13;;;17.50;78.20;;;;;;5011239;28;20180;-70